sensor_id;sensor_type;location;lat;lon;timestamp;pressure;altitude;pressure_sealevel;temperature;humidity
64292;BME280;50628;51.008;13.658;2023-09-08T00:03:13;100365.44;;;15.66;100.00
64292;BME280;50628;51.008;13.658;2023-09-08T00:08:16;100359.69;;;15.33;100.00
64292;BME280;50628;51.008;13.658;2023-09-08T00:13:18;100362.88;;;15.18;100.00
64292;BME280;50628;51.008;13.658;2023-09-08T00:18:20;100361.59;;;15.22;100.00
64292;BME280;50628;51.008;13.658;2023-09-08T00:23:23;100362.59;;;15.21;100.00
64292;BME280;50628;51.008;13.658;2023-09-08T00:28:25;100361.34;;;15.15;100.00
64292;BME280;50628;51.008;13.658;2023-09-08T00:33:27;100363.56;;;15.10;100.00
64292;BME280;50628;51.008;13.658;2023-09-08T00:38:30;100353.59;;;14.94;100.00
64292;BME280;50628;51.008;13.658;2023-09-08T00:43:32;100363.53;;;14.90;100.00
64292;BME280;50628;51.008;13.658;2023-09-08T00:48:34;100360.06;;;14.80;100.00
64292;BME280;50628;51.008;13.658;2023-09-08T00:53:37;100373.16;;;14.70;100.00
64292;BME280;50628;51.008;13.658;2023-09-08T00:58:39;100379.09;;;14.73;100.00
64292;BME280;50628;51.008;13.658;2023-09-08T01:03:41;100366.44;;;14.87;100.00
64292;BME280;50628;51.008;13.658;2023-09-08T01:08:45;100367.50;;;14.65;100.00
64292;BME280;50628;51.008;13.658;2023-09-08T01:13:47;100369.97;;;14.57;100.00
64292;BME280;50628;51.008;13.658;2023-09-08T01:18:49;100372.78;;;14.44;100.00
64292;BME280;50628;51.008;13.658;2023-09-08T01:24:11;100372.13;;;14.52;100.00
64292;BME280;50628;51.008;13.658;2023-09-08T01:29:21;100368.88;;;14.60;100.00
64292;BME280;50628;51.008;13.658;2023-09-08T01:34:25;100369.34;;;14.44;100.00
64292;BME280;50628;51.008;13.658;2023-09-08T01:39:26;100369.50;;;14.52;100.00
64292;BME280;50628;51.008;13.658;2023-09-08T01:44:30;100366.75;;;14.54;100.00
64292;BME280;50628;51.008;13.658;2023-09-08T01:49:32;100366.75;;;14.54;100.00
64292;BME280;50628;51.008;13.658;2023-09-08T01:54:34;100361.59;;;14.42;100.00
64292;BME280;50628;51.008;13.658;2023-09-08T01:59:37;100362.97;;;14.37;100.00
64292;BME280;50628;51.008;13.658;2023-09-08T02:04:39;100351.72;;;14.15;100.00
64292;BME280;50628;51.008;13.658;2023-09-08T02:09:40;100352.16;;;14.20;100.00
64292;BME280;50628;51.008;13.658;2023-09-08T02:14:44;100350.34;;;14.21;100.00
64292;BME280;50628;51.008;13.658;2023-09-08T02:19:46;100350.31;;;14.01;100.00
64292;BME280;50628;51.008;13.658;2023-09-08T02:24:47;100360.97;;;13.89;100.00
64292;BME280;50628;51.008;13.658;2023-09-08T02:29:51;100356.41;;;13.81;100.00
64292;BME280;50628;51.008;13.658;2023-09-08T02:34:53;100365.06;;;13.60;100.00
64292;BME280;50628;51.008;13.658;2023-09-08T02:39:55;100366.66;;;13.52;100.00
64292;BME280;50628;51.008;13.658;2023-09-08T02:44:58;100358.25;;;13.48;100.00
64292;BME280;50628;51.008;13.658;2023-09-08T02:50:00;100360.03;;;13.48;100.00
64292;BME280;50628;51.008;13.658;2023-09-08T02:55:03;100360.03;;;13.48;100.00
64292;BME280;50628;51.008;13.658;2023-09-08T03:00:07;100352.19;;;13.48;100.00
64292;BME280;50628;51.008;13.658;2023-09-08T03:05:09;100344.97;;;13.40;100.00
64292;BME280;50628;51.008;13.658;2023-09-08T03:10:11;100344.34;;;13.48;100.00
64292;BME280;50628;51.008;13.658;2023-09-08T03:15:15;100333.75;;;13.28;100.00
64292;BME280;50628;51.008;13.658;2023-09-08T03:20:17;100329.47;;;13.27;100.00
64292;BME280;50628;51.008;13.658;2023-09-08T03:25:19;100325.47;;;13.44;100.00
64292;BME280;50628;51.008;13.658;2023-09-08T03:30:22;100319.66;;;13.40;100.00
64292;BME280;50628;51.008;13.658;2023-09-08T03:35:24;100315.75;;;13.35;100.00
64292;BME280;50628;51.008;13.658;2023-09-08T03:40:26;100319.00;;;13.27;100.00
64292;BME280;50628;51.008;13.658;2023-09-08T03:45:30;100319.06;;;13.16;100.00
64292;BME280;50628;51.008;13.658;2023-09-08T03:50:32;100314.38;;;12.98;100.00
64292;BME280;50628;51.008;13.658;2023-09-08T03:55:34;100320.31;;;13.01;100.00
64292;BME280;50628;51.008;13.658;2023-09-08T04:00:37;100317.91;;;12.97;100.00
64292;BME280;50628;51.008;13.658;2023-09-08T04:05:39;100307.41;;;12.88;100.00
64292;BME280;50628;51.008;13.658;2023-09-08T04:10:41;100317.63;;;12.80;100.00
64292;BME280;50628;51.008;13.658;2023-09-08T04:15:44;100307.56;;;12.75;100.00
64292;BME280;50628;51.008;13.658;2023-09-08T04:20:46;100316.09;;;12.77;100.00
64292;BME280;50628;51.008;13.658;2023-09-08T04:25:49;100320.09;;;12.60;100.00
64292;BME280;50628;51.008;13.658;2023-09-08T04:30:52;100314.34;;;12.66;100.00
64292;BME280;50628;51.008;13.658;2023-09-08T04:35:54;100320.53;;;12.65;100.00
64292;BME280;50628;51.008;13.658;2023-09-08T04:40:56;100329.00;;;12.58;100.00
64292;BME280;50628;51.008;13.658;2023-09-08T04:46:00;100334.19;;;12.69;100.00
64292;BME280;50628;51.008;13.658;2023-09-08T04:51:03;100329.91;;;12.68;100.00
64292;BME280;50628;51.008;13.658;2023-09-08T04:56:05;100331.41;;;12.82;100.00
64292;BME280;50628;51.008;13.658;2023-09-08T05:01:08;100331.06;;;12.75;100.00
64292;BME280;50628;51.008;13.658;2023-09-08T05:06:11;100329.31;;;12.75;100.00
64292;BME280;50628;51.008;13.658;2023-09-08T05:11:14;100335.25;;;12.77;100.00
64292;BME280;50628;51.008;13.658;2023-09-08T05:16:18;100335.72;;;12.71;100.00
64292;BME280;50628;51.008;13.658;2023-09-08T05:21:27;100341.41;;;12.76;100.00
64292;BME280;50628;51.008;13.658;2023-09-08T05:26:29;100335.66;;;12.94;100.00
64292;BME280;50628;51.008;13.658;2023-09-08T05:31:33;100334.41;;;13.09;100.00
64292;BME280;50628;51.008;13.658;2023-09-08T05:36:35;100341.75;;;13.15;100.00
64292;BME280;50628;51.008;13.658;2023-09-08T05:41:39;100344.53;;;13.35;100.00
64292;BME280;50628;51.008;13.658;2023-09-08T05:46:43;100343.97;;;13.52;100.00
64292;BME280;50628;51.008;13.658;2023-09-08T05:51:47;100345.63;;;13.74;100.00
64292;BME280;50628;51.008;13.658;2023-09-08T05:56:49;100341.75;;;13.99;100.00
64292;BME280;50628;51.008;13.658;2023-09-08T06:01:53;100341.63;;;14.11;100.00
64292;BME280;50628;51.008;13.658;2023-09-08T06:06:55;100338.78;;;14.23;100.00
64292;BME280;50628;51.008;13.658;2023-09-08T06:11:56;100329.47;;;14.40;100.00
64292;BME280;50628;51.008;13.658;2023-09-08T06:17:00;100327.00;;;14.48;100.00
64292;BME280;50628;51.008;13.658;2023-09-08T06:22:02;100314.00;;;14.68;100.00
64292;BME280;50628;51.008;13.658;2023-09-08T06:27:05;100317.03;;;14.92;100.00
64292;BME280;50628;51.008;13.658;2023-09-08T06:32:10;100309.03;;;15.13;100.00
64292;BME280;50628;51.008;13.658;2023-09-08T06:37:15;100307.50;;;15.40;100.00
64292;BME280;50628;51.008;13.658;2023-09-08T06:42:17;100311.31;;;15.55;100.00
64292;BME280;50628;51.008;13.658;2023-09-08T06:47:26;100297.59;;;15.81;100.00
64292;BME280;50628;51.008;13.658;2023-09-08T06:52:28;100303.91;;;15.98;100.00
64292;BME280;50628;51.008;13.658;2023-09-08T06:57:30;100296.53;;;16.29;100.00
64292;BME280;50628;51.008;13.658;2023-09-08T07:02:33;100299.06;;;16.66;100.00
64292;BME280;50628;51.008;13.658;2023-09-08T07:07:37;100294.59;;;16.95;100.00
64292;BME280;50628;51.008;13.658;2023-09-08T07:12:39;100292.09;;;17.29;100.00
64292;BME280;50628;51.008;13.658;2023-09-08T07:17:42;100294.56;;;17.57;100.00
64292;BME280;50628;51.008;13.658;2023-09-08T07:22:44;100279.25;;;17.86;100.00
64292;BME280;50628;51.008;13.658;2023-09-08T07:27:47;100283.03;;;18.18;100.00
64292;BME280;50628;51.008;13.658;2023-09-08T07:32:55;100273.72;;;18.56;100.00
64292;BME280;50628;51.008;13.658;2023-09-08T07:37:58;100271.31;;;18.88;100.00
64292;BME280;50628;51.008;13.658;2023-09-08T07:43:00;100266.50;;;19.24;100.00
64292;BME280;50628;51.008;13.658;2023-09-08T07:48:04;100269.25;;;19.63;100.00
64292;BME280;50628;51.008;13.658;2023-09-08T07:53:06;100273.44;;;19.97;100.00
64292;BME280;50628;51.008;13.658;2023-09-08T07:58:08;100273.41;;;20.37;100.00
64292;BME280;50628;51.008;13.658;2023-09-08T08:03:11;100265.09;;;20.71;100.00
64292;BME280;50628;51.008;13.658;2023-09-08T08:08:13;100263.31;;;20.86;100.00
64292;BME280;50628;51.008;13.658;2023-09-08T08:13:16;100266.03;;;21.16;100.00
64292;BME280;50628;51.008;13.658;2023-09-08T08:18:19;100266.88;;;21.31;100.00
64292;BME280;50628;51.008;13.658;2023-09-08T08:23:21;100262.66;;;21.60;100.00
64292;BME280;50628;51.008;13.658;2023-09-08T08:28:23;100252.13;;;21.81;100.00
64292;BME280;50628;51.008;13.658;2023-09-08T08:33:27;100248.47;;;21.97;100.00
64292;BME280;50628;51.008;13.658;2023-09-08T08:38:29;100250.75;;;22.37;100.00
64292;BME280;50628;51.008;13.658;2023-09-08T08:43:32;100239.97;;;22.60;100.00
64292;BME280;50628;51.008;13.658;2023-09-08T08:48:37;100236.34;;;22.89;100.00
64292;BME280;50628;51.008;13.658;2023-09-08T08:53:39;100230.78;;;23.05;100.00
64292;BME280;50628;51.008;13.658;2023-09-08T08:58:41;100229.09;;;22.98;100.00
64292;BME280;50628;51.008;13.658;2023-09-08T09:03:46;100220.56;;;23.37;100.00
64292;BME280;50628;51.008;13.658;2023-09-08T09:08:50;100214.69;;;23.42;100.00
64292;BME280;50628;51.008;13.658;2023-09-08T09:13:52;100204.06;;;23.77;100.00
64292;BME280;50628;51.008;13.658;2023-09-08T09:18:57;100204.38;;;24.28;100.00
64292;BME280;50628;51.008;13.658;2023-09-08T09:23:59;100200.75;;;24.96;100.00
64292;BME280;50628;51.008;13.658;2023-09-08T09:29:00;100198.47;;;25.26;90.52
64292;BME280;50628;51.008;13.658;2023-09-08T09:34:05;100188.19;;;25.36;78.25
64292;BME280;50628;51.008;13.658;2023-09-08T09:39:07;100196.38;;;25.48;74.71
64292;BME280;50628;51.008;13.658;2023-09-08T09:44:09;100187.25;;;25.69;72.30
64292;BME280;50628;51.008;13.658;2023-09-08T09:49:14;100184.97;;;25.79;68.17
64292;BME280;50628;51.008;13.658;2023-09-08T09:54:17;100181.88;;;25.89;65.00
64292;BME280;50628;51.008;13.658;2023-09-08T09:59:19;100184.09;;;25.92;63.23
64292;BME280;50628;51.008;13.658;2023-09-08T10:04:24;100178.28;;;26.08;59.77
64292;BME280;50628;51.008;13.658;2023-09-08T10:09:26;100169.25;;;26.34;58.35
64292;BME280;50628;51.008;13.658;2023-09-08T10:14:28;100176.13;;;26.24;56.14
64292;BME280;50628;51.008;13.658;2023-09-08T10:19:33;100175.97;;;26.44;56.74
64292;BME280;50628;51.008;13.658;2023-09-08T10:24:43;100175.56;;;26.72;56.70
64292;BME280;50628;51.008;13.658;2023-09-08T10:29:48;100162.81;;;26.74;54.12
64292;BME280;50628;51.008;13.658;2023-09-08T10:34:52;100164.94;;;26.65;54.21
64292;BME280;50628;51.008;13.658;2023-09-08T10:40:20;100164.63;;;26.98;53.54
64292;BME280;50628;51.008;13.658;2023-09-08T10:45:22;100148.97;;;27.02;51.21
64292;BME280;50628;51.008;13.658;2023-09-08T10:50:30;100146.16;;;27.34;51.07
64292;BME280;50628;51.008;13.658;2023-09-08T10:55:37;100151.50;;;27.15;51.12
64292;BME280;50628;51.008;13.658;2023-09-08T11:00:45;100135.88;;;27.37;48.96
64292;BME280;50628;51.008;13.658;2023-09-08T11:05:49;100150.53;;;27.65;48.31
64292;BME280;50628;51.008;13.658;2023-09-08T11:10:51;100147.06;;;27.46;47.78
64292;BME280;50628;51.008;13.658;2023-09-08T11:15:53;100144.06;;;28.15;46.73
64292;BME280;50628;51.008;13.658;2023-09-08T11:20:57;100143.03;;;28.16;45.73
64292;BME280;50628;51.008;13.658;2023-09-08T11:26:00;100140.22;;;28.53;45.18
64292;BME280;50628;51.008;13.658;2023-09-08T11:31:02;100142.88;;;28.64;44.53
64292;BME280;50628;51.008;13.658;2023-09-08T11:36:12;100132.97;;;28.65;44.55
64292;BME280;50628;51.008;13.658;2023-09-08T11:41:16;100134.81;;;29.23;45.04
64292;BME280;50628;51.008;13.658;2023-09-08T11:46:18;100144.41;;;28.96;43.64
64292;BME280;50628;51.008;13.658;2023-09-08T11:51:23;100129.47;;;29.23;42.58
64292;BME280;50628;51.008;13.658;2023-09-08T11:56:25;100132.47;;;29.55;42.40
64292;BME280;50628;51.008;13.658;2023-09-08T12:01:28;100137.03;;;29.15;41.42
64292;BME280;50628;51.008;13.658;2023-09-08T12:06:31;100135.31;;;29.08;41.83
64292;BME280;50628;51.008;13.658;2023-09-08T12:11:33;100128.06;;;29.90;40.58
64292;BME280;50628;51.008;13.658;2023-09-08T12:16:37;100124.25;;;30.03;39.60
64292;BME280;50628;51.008;13.658;2023-09-08T12:21:56;100127.97;;;29.56;38.39
64292;BME280;50628;51.008;13.658;2023-09-08T12:26:58;100119.72;;;29.74;38.26
64292;BME280;50628;51.008;13.658;2023-09-08T12:32:04;100114.53;;;29.85;38.02
64292;BME280;50628;51.008;13.658;2023-09-08T12:37:07;100106.38;;;30.25;37.80
64292;BME280;50628;51.008;13.658;2023-09-08T12:42:10;100090.16;;;30.20;37.33
64292;BME280;50628;51.008;13.658;2023-09-08T12:47:13;100086.59;;;30.31;36.50
64292;BME280;50628;51.008;13.658;2023-09-08T12:52:16;100080.47;;;30.92;36.65
64292;BME280;50628;51.008;13.658;2023-09-08T12:57:18;100073.88;;;31.26;37.17
64292;BME280;50628;51.008;13.658;2023-09-08T13:02:20;100071.25;;;32.13;37.03
64292;BME280;50628;51.008;13.658;2023-09-08T13:07:23;100070.59;;;31.96;37.05
64292;BME280;50628;51.008;13.658;2023-09-08T13:12:26;100068.22;;;31.23;37.50
64292;BME280;50628;51.008;13.658;2023-09-08T13:17:28;100072.59;;;31.07;38.66
64292;BME280;50628;51.008;13.658;2023-09-08T13:22:31;100072.06;;;31.05;38.24
64292;BME280;50628;51.008;13.658;2023-09-08T13:27:33;100072.75;;;31.44;38.08
64292;BME280;50628;51.008;13.658;2023-09-08T13:32:35;100079.47;;;31.20;36.41
64292;BME280;50628;51.008;13.658;2023-09-08T13:37:38;100068.31;;;31.87;37.57
64292;BME280;50628;51.008;13.658;2023-09-08T13:42:40;100064.03;;;31.91;38.06
64292;BME280;50628;51.008;13.658;2023-09-08T13:47:42;100059.81;;;31.41;39.31
64292;BME280;50628;51.008;13.658;2023-09-08T13:52:45;100065.88;;;31.32;38.09
64292;BME280;50628;51.008;13.658;2023-09-08T13:57:47;100058.78;;;32.44;37.04
64292;BME280;50628;51.008;13.658;2023-09-08T14:02:49;100048.69;;;32.62;36.23
64292;BME280;50628;51.008;13.658;2023-09-08T14:07:52;100056.78;;;32.24;34.96
64292;BME280;50628;51.008;13.658;2023-09-08T14:12:54;100055.59;;;33.05;34.88
64292;BME280;50628;51.008;13.658;2023-09-08T14:17:56;100045.72;;;33.47;34.45
64292;BME280;50628;51.008;13.658;2023-09-08T14:22:59;100051.59;;;33.23;34.40
64292;BME280;50628;51.008;13.658;2023-09-08T14:28:01;100051.78;;;33.01;34.68
64292;BME280;50628;51.008;13.658;2023-09-08T14:33:03;100048.28;;;33.01;33.52
64292;BME280;50628;51.008;13.658;2023-09-08T14:38:07;100040.56;;;33.25;33.29
64292;BME280;50628;51.008;13.658;2023-09-08T14:43:09;100052.00;;;32.79;34.18
64292;BME280;50628;51.008;13.658;2023-09-08T14:48:11;100043.78;;;32.53;34.02
64292;BME280;50628;51.008;13.658;2023-09-08T14:53:14;100031.38;;;32.52;34.31
64292;BME280;50628;51.008;13.658;2023-09-08T14:58:16;100041.41;;;32.67;32.81
64292;BME280;50628;51.008;13.658;2023-09-08T15:03:18;100029.22;;;32.54;33.55
64292;BME280;50628;51.008;13.658;2023-09-08T15:08:21;100032.75;;;33.54;33.03
64292;BME280;50628;51.008;13.658;2023-09-08T15:13:23;100026.53;;;33.28;33.31
64292;BME280;50628;51.008;13.658;2023-09-08T15:18:25;100028.63;;;32.05;35.35
64292;BME280;50628;51.008;13.658;2023-09-08T15:23:29;100017.84;;;31.13;37.68
64292;BME280;50628;51.008;13.658;2023-09-08T15:28:30;100024.06;;;30.53;38.85
64292;BME280;50628;51.008;13.658;2023-09-08T15:33:32;100018.06;;;30.46;39.93
64292;BME280;50628;51.008;13.658;2023-09-08T15:38:36;100026.81;;;30.02;40.10
64292;BME280;50628;51.008;13.658;2023-09-08T15:43:39;100020.78;;;29.78;40.17
64292;BME280;50628;51.008;13.658;2023-09-08T15:48:41;100012.28;;;29.52;41.16
64292;BME280;50628;51.008;13.658;2023-09-08T15:53:44;100011.50;;;29.23;42.45
64292;BME280;50628;51.008;13.658;2023-09-08T15:58:46;100002.22;;;29.14;43.38
64292;BME280;50628;51.008;13.658;2023-09-08T16:03:48;100005.88;;;28.96;43.55
64292;BME280;50628;51.008;13.658;2023-09-08T16:08:51;100004.81;;;28.97;44.46
64292;BME280;50628;51.008;13.658;2023-09-08T16:13:53;100006.38;;;28.81;45.43
64292;BME280;50628;51.008;13.658;2023-09-08T16:18:55;100008.97;;;28.64;45.76
64292;BME280;50628;51.008;13.658;2023-09-08T16:23:58;100005.88;;;28.56;46.75
64292;BME280;50628;51.008;13.658;2023-09-08T16:29:00;100002.94;;;28.34;46.87
64292;BME280;50628;51.008;13.658;2023-09-08T16:34:02;100001.09;;;28.22;47.50
64292;BME280;50628;51.008;13.658;2023-09-08T16:39:05;100003.06;;;28.03;49.56
64292;BME280;50628;51.008;13.658;2023-09-08T16:44:07;99998.28;;;27.94;50.79
64292;BME280;50628;51.008;13.658;2023-09-08T16:49:09;100004.03;;;27.67;50.21
64292;BME280;50628;51.008;13.658;2023-09-08T16:54:13;99997.97;;;27.60;52.26
64292;BME280;50628;51.008;13.658;2023-09-08T16:59:14;100008.50;;;27.43;53.30
64292;BME280;50628;51.008;13.658;2023-09-08T17:04:16;100008.47;;;27.13;55.37
64292;BME280;50628;51.008;13.658;2023-09-08T17:09:20;100003.78;;;26.96;56.86
64292;BME280;50628;51.008;13.658;2023-09-08T17:14:23;100008.06;;;26.61;65.79
64292;BME280;50628;51.008;13.658;2023-09-08T17:19:24;100012.91;;;26.27;78.52
64292;BME280;50628;51.008;13.658;2023-09-08T17:24:28;100016.97;;;25.79;89.31
64292;BME280;50628;51.008;13.658;2023-09-08T17:29:30;100019.28;;;25.44;90.83
64292;BME280;50628;51.008;13.658;2023-09-08T17:34:32;100021.84;;;25.25;96.45
64292;BME280;50628;51.008;13.658;2023-09-08T17:39:35;100025.88;;;24.90;100.00
64292;BME280;50628;51.008;13.658;2023-09-08T17:44:37;100024.31;;;24.55;100.00
64292;BME280;50628;51.008;13.658;2023-09-08T17:49:39;100034.16;;;24.28;100.00
64292;BME280;50628;51.008;13.658;2023-09-08T17:54:42;100033.75;;;23.98;100.00
64292;BME280;50628;51.008;13.658;2023-09-08T17:59:44;100029.03;;;23.73;100.00
64292;BME280;50628;51.008;13.658;2023-09-08T18:04:46;100034.50;;;23.59;100.00
64292;BME280;50628;51.008;13.658;2023-09-08T18:09:50;100027.94;;;23.41;100.00
64292;BME280;50628;51.008;13.658;2023-09-08T18:14:52;100042.00;;;23.28;100.00
64292;BME280;50628;51.008;13.658;2023-09-08T18:19:54;100040.03;;;23.02;100.00
64292;BME280;50628;51.008;13.658;2023-09-08T18:24:58;100041.06;;;23.01;100.00
64292;BME280;50628;51.008;13.658;2023-09-08T18:30:01;100041.34;;;22.85;100.00
64292;BME280;50628;51.008;13.658;2023-09-08T18:35:03;100041.03;;;22.66;100.00
64292;BME280;50628;51.008;13.658;2023-09-08T18:40:08;100039.09;;;22.47;100.00
64292;BME280;50628;51.008;13.658;2023-09-08T18:45:10;100042.84;;;22.31;100.00
64292;BME280;50628;51.008;13.658;2023-09-08T18:50:12;100033.50;;;22.14;100.00
64292;BME280;50628;51.008;13.658;2023-09-08T18:55:15;100040.97;;;22.03;100.00
64292;BME280;50628;51.008;13.658;2023-09-08T19:00:17;100043.84;;;21.80;100.00
64292;BME280;50628;51.008;13.658;2023-09-08T19:05:19;100051.31;;;21.77;100.00
64292;BME280;50628;51.008;13.658;2023-09-08T19:10:22;100052.25;;;21.48;100.00
64292;BME280;50628;51.008;13.658;2023-09-08T19:15:24;100057.94;;;21.45;100.00
64292;BME280;50628;51.008;13.658;2023-09-08T19:20:26;100057.69;;;21.39;100.00
64292;BME280;50628;51.008;13.658;2023-09-08T19:25:30;100049.22;;;21.36;100.00
64292;BME280;50628;51.008;13.658;2023-09-08T19:30:32;100063.97;;;21.09;100.00
64292;BME280;50628;51.008;13.658;2023-09-08T19:35:34;100060.63;;;21.00;100.00
64292;BME280;50628;51.008;13.658;2023-09-08T19:40:37;100059.25;;;20.89;100.00
64292;BME280;50628;51.008;13.658;2023-09-08T19:45:39;100048.41;;;20.69;100.00
64292;BME280;50628;51.008;13.658;2023-09-08T19:50:43;100055.31;;;20.56;100.00
64292;BME280;50628;51.008;13.658;2023-09-08T19:55:46;100053.50;;;20.33;100.00
64292;BME280;50628;51.008;13.658;2023-09-08T20:00:50;100058.19;;;20.31;100.00
64292;BME280;50628;51.008;13.658;2023-09-08T20:05:52;100049.94;;;20.11;100.00
64292;BME280;50628;51.008;13.658;2023-09-08T20:10:55;100058.53;;;20.05;100.00
64292;BME280;50628;51.008;13.658;2023-09-08T20:15:58;100052.03;;;19.93;100.00
64292;BME280;50628;51.008;13.658;2023-09-08T20:21:01;100057.59;;;19.75;100.00
64292;BME280;50628;51.008;13.658;2023-09-08T20:26:04;100055.53;;;19.62;100.00
64292;BME280;50628;51.008;13.658;2023-09-08T20:31:06;100065.13;;;19.55;100.00
64292;BME280;50628;51.008;13.658;2023-09-08T20:36:09;100059.34;;;19.28;100.00
64292;BME280;50628;51.008;13.658;2023-09-08T20:41:12;100060.97;;;19.29;100.00
64292;BME280;50628;51.008;13.658;2023-09-08T20:46:14;100062.34;;;19.17;100.00
64292;BME280;50628;51.008;13.658;2023-09-08T20:51:17;100057.06;;;19.17;100.00
64292;BME280;50628;51.008;13.658;2023-09-08T20:56:21;100060.34;;;18.88;100.00
64292;BME280;50628;51.008;13.658;2023-09-08T21:01:22;100064.13;;;18.69;100.00
64292;BME280;50628;51.008;13.658;2023-09-08T21:06:24;100067.50;;;18.30;100.00
64292;BME280;50628;51.008;13.658;2023-09-08T21:11:28;100062.06;;;18.23;100.00
64292;BME280;50628;51.008;13.658;2023-09-08T21:16:30;100066.97;;;18.26;100.00
64292;BME280;50628;51.008;13.658;2023-09-08T21:21:32;100058.25;;;18.42;100.00
64292;BME280;50628;51.008;13.658;2023-09-08T21:26:35;100073.75;;;18.12;100.00
64292;BME280;50628;51.008;13.658;2023-09-08T21:31:37;100066.63;;;18.29;100.00
64292;BME280;50628;51.008;13.658;2023-09-08T21:36:39;100064.19;;;18.20;100.00
64292;BME280;50628;51.008;13.658;2023-09-08T21:41:42;100066.81;;;17.95;100.00
64292;BME280;50628;51.008;13.658;2023-09-08T21:46:44;100064.44;;;17.67;100.00
64292;BME280;50628;51.008;13.658;2023-09-08T21:51:45;100063.63;;;17.75;100.00
64292;BME280;50628;51.008;13.658;2023-09-08T21:56:51;100066.56;;;17.64;100.00
64292;BME280;50628;51.008;13.658;2023-09-08T22:01:53;100067.88;;;17.51;100.00
64292;BME280;50628;51.008;13.658;2023-09-08T22:06:56;100069.69;;;17.59;100.00
64292;BME280;50628;51.008;13.658;2023-09-08T22:12:01;100071.25;;;17.36;100.00
64292;BME280;50628;51.008;13.658;2023-09-08T22:17:03;100066.69;;;17.46;100.00
64292;BME280;50628;51.008;13.658;2023-09-08T22:22:05;100065.47;;;17.24;100.00
64292;BME280;50628;51.008;13.658;2023-09-08T22:27:09;100070.19;;;17.12;100.00
64292;BME280;50628;51.008;13.658;2023-09-08T22:32:11;100063.78;;;17.06;100.00
64292;BME280;50628;51.008;13.658;2023-09-08T22:37:13;100072.44;;;16.99;100.00
64292;BME280;50628;51.008;13.658;2023-09-08T22:42:17;100066.47;;;16.89;100.00
64292;BME280;50628;51.008;13.658;2023-09-08T22:47:19;100065.25;;;16.57;100.00
64292;BME280;50628;51.008;13.658;2023-09-08T22:52:21;100068.03;;;16.29;100.00
64292;BME280;50628;51.008;13.658;2023-09-08T22:57:24;100063.84;;;16.18;100.00
64292;BME280;50628;51.008;13.658;2023-09-08T23:02:26;100064.63;;;16.37;100.00
64292;BME280;50628;51.008;13.658;2023-09-08T23:07:28;100063.00;;;16.36;100.00
64292;BME280;50628;51.008;13.658;2023-09-08T23:12:31;100065.84;;;16.25;100.00
64292;BME280;50628;51.008;13.658;2023-09-08T23:17:33;100068.41;;;16.16;100.00
64292;BME280;50628;51.008;13.658;2023-09-08T23:22:35;100064.38;;;16.04;100.00
64292;BME280;50628;51.008;13.658;2023-09-08T23:27:39;100065.81;;;15.98;100.00
64292;BME280;50628;51.008;13.658;2023-09-08T23:32:41;100056.50;;;16.04;100.00
64292;BME280;50628;51.008;13.658;2023-09-08T23:37:42;100064.44;;;15.76;100.00
64292;BME280;50628;51.008;13.658;2023-09-08T23:42:46;100055.00;;;15.84;100.00
64292;BME280;50628;51.008;13.658;2023-09-08T23:47:48;100058.06;;;15.79;100.00
64292;BME280;50628;51.008;13.658;2023-09-08T23:52:50;100054.78;;;15.77;100.00
64292;BME280;50628;51.008;13.658;2023-09-08T23:57:53;100060.69;;;15.79;100.00
